Time;durP1;ratioP1;P1;durP2;ratioP2;P2;SDS_P1;SDS_P2;PMS_P1;PMS_P2;Temp;Humidity;BMP_temperature;BMP_pressure;BME280_temperature;BME280_humidity;BME280_pressure;Samples;Min_cycle;Max_cycle;Signal;HPM_P1;HPM_P2
2021/11/03 00:00:14;;;;;;;3.70;3.37;;;8.60;42.20;;;;;;10360005;28;20230;-67
2021/11/03 00:05:18;;;;;;;3.23;2.93;;;8.50;42.20;;;;;;10361698;28;20238;-67
2021/11/03 00:10:23;;;;;;;3.90;3.50;;;8.50;42.20;;;;;;10358677;28;20222;-67
2021/11/03 00:15:26;;;;;;;3.80;3.50;;;8.40;42.00;;;;;;10351743;28;20697;-67
2021/11/03 00:20:30;;;;;;;2.80;2.60;;;8.30;42.20;;;;;;10358857;28;20226;-66
2021/11/03 00:25:40;;;;;;;2.87;2.67;;;8.10;42.20;;;;;;10361274;28;20218;-67
2021/11/03 00:30:44;;;;;;;2.20;2.10;;;8.10;42.50;;;;;;10348924;28;20731;-67
2021/11/03 00:35:47;;;;;;;2.70;2.50;;;8.00;42.40;;;;;;10358290;28;20226;-66
2021/11/03 00:40:52;;;;;;;3.00;2.80;;;8.00;42.30;;;;;;10351698;28;20227;-67
2021/11/03 00:45:55;;;;;;;3.60;3.30;;;8.00;42.20;;;;;;10350007;28;20496;-67
2021/11/03 00:50:59;;;;;;;3.07;2.87;;;8.00;42.30;;;;;;10351855;28;20321;-67
2021/11/03 00:56:03;;;;;;;3.07;2.80;;;7.90;42.50;;;;;;10347368;28;20889;-67
2021/11/03 01:01:07;;;;;;;3.10;2.90;;;7.90;42.40;;;;;;10365028;28;21218;-67
2021/11/03 01:06:10;;;;;;;4.07;3.40;;;7.90;42.50;;;;;;10384433;28;20696;-67
2021/11/03 01:11:15;;;;;;;3.20;2.97;;;7.90;42.40;;;;;;10396122;28;20237;-66
2021/11/03 01:16:37;;;;;;;3.67;3.37;;;7.90;42.30;;;;;;10411633;28;20311;-66
2021/11/03 01:21:41;;;;;;;3.40;3.10;;;7.90;42.30;;;;;;10392152;28;20741;-66
2021/11/03 01:26:45;;;;;;;3.20;3.00;;;7.80;42.20;;;;;;10391939;28;20214;-66
2021/11/03 01:31:49;;;;;;;3.50;3.20;;;7.80;42.00;;;;;;10388318;28;20225;-66
2021/11/03 01:36:52;;;;;;;6.43;3.13;;;7.80;42.20;;;;;;10389767;28;20869;-66
2021/11/03 01:41:57;;;;;;;2.67;2.43;;;7.70;41.90;;;;;;10398889;28;20733;-66
2021/11/03 01:47:33;;;;;;;2.93;2.70;;;7.60;41.80;;;;;;10397916;28;20236;-66
2021/11/03 01:52:36;;;;;;;2.40;2.20;;;7.50;41.80;;;;;;10363840;28;20713;-66
2021/11/03 01:57:44;;;;;;;2.63;2.43;;;7.40;42.20;;;;;;10362115;28;20799;-66
2021/11/03 02:02:48;;;;;;;2.30;2.10;;;7.40;42.50;;;;;;10357672;28;20226;-66
2021/11/03 02:07:53;;;;;;;3.40;2.67;;;7.40;42.50;;;;;;10349796;28;20238;-66
2021/11/03 02:12:58;;;;;;;3.03;2.80;;;7.40;42.50;;;;;;10361044;28;20256;-66
2021/11/03 02:18:02;;;;;;;2.50;2.30;;;7.40;42.40;;;;;;10352978;28;20231;-66
2021/11/03 02:23:14;;;;;;;2.50;2.30;;;7.40;42.20;;;;;;10361124;28;20226;-67
2021/11/03 02:28:19;;;;;;;2.40;2.23;;;7.30;41.90;;;;;;10351841;28;20226;-66
2021/11/03 02:33:26;;;;;;;2.50;2.30;;;7.30;42.20;;;;;;10360181;28;20249;-66
2021/11/03 02:38:37;;;;;;;3.17;2.40;;;7.30;42.10;;;;;;10361757;28;20237;-66
2021/11/03 02:43:47;;;;;;;3.03;2.33;;;7.20;42.00;;;;;;10360142;28;20643;-66
2021/11/03 02:48:50;;;;;;;1.83;1.73;;;7.10;42.00;;;;;;10357979;28;20222;-66
2021/11/03 02:53:56;;;;;;;2.03;1.93;;;7.10;42.20;;;;;;10358448;28;20231;-66
2021/11/03 02:59:01;;;;;;;2.17;1.97;;;7.10;42.40;;;;;;10352385;28;20222;-66
2021/11/03 03:04:08;;;;;;;2.50;2.07;;;7.10;42.40;;;;;;10361854;28;20233;-67
2021/11/03 03:09:12;;;;;;;2.00;1.90;;;7.10;42.30;;;;;;10345872;28;20230;-67
2021/11/03 03:14:17;;;;;;;2.10;2.00;;;7.10;42.40;;;;;;10356917;28;20310;-66
2021/11/03 03:19:20;;;;;;;2.00;1.90;;;7.10;42.20;;;;;;10351564;28;20598;-66
2021/11/03 03:24:24;;;;;;;2.03;1.93;;;7.00;42.30;;;;;;10347593;28;20222;-66
2021/11/03 03:29:28;;;;;;;3.20;1.90;;;7.00;42.50;;;;;;10361946;28;20233;-66
2021/11/03 03:34:33;;;;;;;1.80;1.70;;;6.90;42.20;;;;;;10350484;28;20230;-66
2021/11/03 03:39:36;;;;;;;1.83;1.73;;;6.90;42.20;;;;;;10362072;28;20227;-67
2021/11/03 03:44:43;;;;;;;2.03;1.93;;;6.90;42.30;;;;;;10363017;28;20233;-66
2021/11/03 03:49:46;;;;;;;2.10;2.00;;;6.90;42.20;;;;;;10360029;28;20580;-66
2021/11/03 03:54:49;;;;;;;2.20;1.90;;;6.80;42.10;;;;;;10354715;28;20474;-67
2021/11/03 03:59:54;;;;;;;2.20;2.00;;;6.80;42.20;;;;;;10362482;28;20227;-66
2021/11/03 04:04:57;;;;;;;2.93;2.20;;;6.70;42.40;;;;;;10349434;28;20595;-66
2021/11/03 04:10:00;;;;;;;2.00;1.90;;;6.70;42.50;;;;;;10354933;28;20711;-66
2021/11/03 04:15:06;;;;;;;1.70;1.60;;;6.60;42.40;;;;;;10346406;28;20776;-67
2021/11/03 04:20:12;;;;;;;1.90;1.80;;;6.60;42.50;;;;;;10355773;28;20240;-66
2021/11/03 04:25:15;;;;;;;1.90;1.80;;;6.60;42.50;;;;;;10358241;28;20233;-66
2021/11/03 04:30:22;;;;;;;2.03;1.67;;;6.60;42.50;;;;;;10354226;28;20230;-66
2021/11/03 04:35:26;;;;;;;1.87;1.77;;;6.60;42.50;;;;;;10350676;28;20304;-70
2021/11/03 04:40:30;;;;;;;1.90;1.80;;;6.60;42.30;;;;;;10360926;28;20240;-70
2021/11/03 04:45:34;;;;;;;19.40;2.17;;;6.60;42.30;;;;;;10358393;28;20249;-70
2021/11/03 04:50:38;;;;;;;4.87;1.60;;;6.60;42.40;;;;;;10367249;28;20245;-72
2021/11/03 04:55:44;;;;;;;4.10;2.33;;;6.60;42.40;;;;;;10378385;28;20902;-72
2021/11/03 05:00:51;;;;;;;21.57;2.37;;;6.50;42.30;;;;;;10357253;28;20222;-72
2021/11/03 05:05:57;;;;;;;12.30;2.10;;;6.40;42.50;;;;;;10395439;28;20588;-72
2021/11/03 05:11:01;;;;;;;1.90;1.80;;;6.40;42.40;;;;;;10393416;28;20257;-72
2021/11/03 05:16:06;;;;;;;2.07;1.97;;;6.40;42.50;;;;;;10395545;28;20222;-71
2021/11/03 05:21:09;;;;;;;1.70;1.60;;;6.40;42.80;;;;;;10391181;28;20268;-69
2021/11/03 05:26:14;;;;;;;2.30;2.10;;;6.30;42.60;;;;;;10398750;28;20221;-70
2021/11/03 05:31:18;;;;;;;5.80;2.20;;;6.30;42.80;;;;;;10404103;28;20221;-72
2021/11/03 05:36:29;;;;;;;2.20;2.10;;;6.30;42.80;;;;;;10398165;28;20336;-72
2021/11/03 05:41:37;;;;;;;27.30;2.20;;;6.30;42.80;;;;;;10403368;28;20222;-72
2021/11/03 05:46:45;;;;;;;17.37;1.93;;;6.30;42.60;;;;;;10400074;28;20883;-72
2021/11/03 05:51:49;;;;;;;4.00;1.50;;;6.30;42.50;;;;;;10394002;28;20229;-72
2021/11/03 05:56:52;;;;;;;4.03;2.10;;;6.20;42.50;;;;;;10392150;28;20572;-72
2021/11/03 06:01:57;;;;;;;2.00;1.90;;;6.20;42.60;;;;;;10400847;28;20226;-72
2021/11/03 06:07:00;;;;;;;28.10;2.30;;;6.20;42.90;;;;;;10401133;28;20231;-72
2021/11/03 06:12:04;;;;;;;1.87;1.77;;;6.20;42.80;;;;;;10371063;28;20483;-71
2021/11/03 06:17:09;;;;;;;1.53;1.43;;;6.10;42.70;;;;;;10363310;28;20254;-71
2021/11/03 06:22:12;;;;;;;2.00;1.80;;;6.10;42.90;;;;;;10354315;28;20246;-72
2021/11/03 06:27:16;;;;;;;1.87;1.77;;;6.10;42.90;;;;;;10358392;28;20785;-72
2021/11/03 06:32:20;;;;;;;2.90;1.80;;;6.10;43.00;;;;;;10354698;28;20313;-72
2021/11/03 06:37:24;;;;;;;1.70;1.60;;;6.20;43.00;;;;;;10354162;28;20226;-72
2021/11/03 06:42:27;;;;;;;1.80;1.70;;;6.10;43.00;;;;;;10363035;28;20734;-72
2021/11/03 06:47:31;;;;;;;1.80;1.70;;;6.20;43.10;;;;;;10353173;28;20231;-72
2021/11/03 06:52:36;;;;;;;1.70;1.60;;;6.10;43.00;;;;;;10357529;28;20244;-72
2021/11/03 06:57:42;;;;;;;3.20;3.00;;;6.20;43.00;;;;;;10359531;28;20218;-72
2021/11/03 07:02:47;;;;;;;3.50;3.30;;;6.10;43.00;;;;;;10361424;28;20238;-72
2021/11/03 07:07:50;;;;;;;2.87;2.57;;;6.20;43.00;;;;;;10397833;28;20214;-72
2021/11/03 07:12:53;;;;;;;2.40;2.30;;;6.10;42.90;;;;;;10402946;28;20257;-72
2021/11/03 07:17:58;;;;;;;2.97;2.67;;;6.20;43.00;;;;;;10398331;28;20259;-72
2021/11/03 07:23:02;;;;;;;2.60;2.40;;;6.10;43.20;;;;;;10397856;28;20230;-72
2021/11/03 07:28:06;;;;;;;2.20;2.10;;;6.10;43.20;;;;;;10403438;28;20700;-71
2021/11/03 07:33:12;;;;;;;2.80;2.60;;;6.10;43.50;;;;;;10395779;28;20697;-72
2021/11/03 07:38:15;;;;;;;3.00;2.80;;;6.20;43.70;;;;;;10400275;28;20256;-72
2021/11/03 07:43:21;;;;;;;3.50;3.20;;;6.20;43.70;;;;;;10400631;28;20233;-72
2021/11/03 07:48:28;;;;;;;4.27;3.20;;;6.20;43.70;;;;;;10398467;28;20259;-72
2021/11/03 07:53:32;;;;;;;2.93;2.73;;;6.30;43.90;;;;;;10393631;28;20225;-72
2021/11/03 07:58:38;;;;;;;4.03;3.73;;;6.30;43.80;;;;;;10388546;28;20236;-71
2021/11/03 08:03:42;;;;;;;3.20;3.00;;;6.40;44.20;;;;;;10391940;28;20228;-72
2021/11/03 08:08:51;;;;;;;3.47;3.17;;;6.40;44.20;;;;;;10397253;28;20229;-72
2021/11/03 08:13:54;;;;;;;3.77;3.23;;;6.50;44.30;;;;;;10390302;28;20221;-72
2021/11/03 08:18:59;;;;;;;4.60;3.50;;;6.60;44.40;;;;;;10399101;28;20338;-72
2021/11/03 08:24:02;;;;;;;3.23;2.83;;;6.60;44.80;;;;;;10361758;28;20687;-71
2021/11/03 08:29:05;;;;;;;3.07;2.87;;;6.70;44.80;;;;;;10363932;28;20234;-72
2021/11/03 08:34:11;;;;;;;3.37;2.97;;;6.80;45.20;;;;;;10368045;28;20237;-72
2021/11/03 08:39:14;;;;;;;2.70;2.50;;;6.90;46.00;;;;;;10362372;28;20236;-72
2021/11/03 08:44:18;;;;;;;4.13;2.53;;;7.00;45.90;;;;;;10367458;28;20234;-72
2021/11/03 08:49:22;;;;;;;2.73;2.53;;;7.20;46.20;;;;;;10392951;28;20226;-71
2021/11/03 08:54:25;;;;;;;2.70;2.50;;;7.40;46.60;;;;;;10402073;28;20234;-69
2021/11/03 08:59:50;;;;;;;2.83;2.63;;;7.60;46.20;;;;;;10401970;28;20230;-69
2021/11/03 09:04:55;;;;;;;2.57;2.37;;;7.70;46.40;;;;;;10401410;28;20232;-69
2021/11/03 09:09:58;;;;;;;2.33;2.23;;;7.90;46.70;;;;;;10398618;28;20252;-69
2021/11/03 09:15:01;;;;;;;3.03;2.40;;;8.00;46.30;;;;;;10406352;28;20556;-69
2021/11/03 09:20:09;;;;;;;2.17;2.07;;;8.10;46.40;;;;;;10401460;28;20228;-69
2021/11/03 09:25:15;;;;;;;3.30;2.67;;;8.20;47.10;;;;;;10392170;28;20592;-69
2021/11/03 09:30:23;;;;;;;3.73;2.73;;;8.40;46.90;;;;;;10397495;28;20745;-69
2021/11/03 09:35:31;;;;;;;2.10;1.90;;;8.50;47.00;;;;;;10392486;28;20705;-70
2021/11/03 09:40:44;;;;;;;2.07;1.97;;;8.70;47.10;;;;;;10402642;28;20233;-69
2021/11/03 09:45:47;;;;;;;2.17;1.97;;;8.80;47.20;;;;;;10396227;28;20673;-70
2021/11/03 09:50:55;;;;;;;1.97;1.87;;;9.00;47.00;;;;;;10397294;28;20222;-70
2021/11/03 09:55:59;;;;;;;2.10;1.90;;;9.10;47.20;;;;;;10401963;28;20228;-70
2021/11/03 10:01:09;;;;;;;2.00;1.80;;;9.20;46.80;;;;;;10396322;28;20594;-71
2021/11/03 10:06:21;;;;;;;1.93;1.70;;;9.40;47.10;;;;;;10400332;28;20226;-70
2021/11/03 10:11:26;;;;;;;1.50;1.40;;;9.50;47.10;;;;;;10407520;28;20238;-70
2021/11/03 10:16:33;;;;;;;1.50;1.40;;;9.60;46.60;;;;;;10400845;28;20225;-70
2021/11/03 10:21:42;;;;;;;1.73;1.47;;;9.70;46.60;;;;;;10398712;28;20737;-69
2021/11/03 10:26:49;;;;;;;1.50;1.40;;;9.90;46.70;;;;;;10402355;28;20221;-70
2021/11/03 10:31:57;;;;;;;1.80;1.70;;;10.00;45.90;;;;;;10390383;28;20241;-70
2021/11/03 10:37:12;;;;;;;1.60;1.50;;;10.10;46.00;;;;;;10387195;28;20244;-70
2021/11/03 10:42:23;;;;;;;1.77;1.67;;;10.20;46.00;;;;;;10388346;28;20227;-70
2021/11/03 10:47:26;;;;;;;1.90;1.80;;;10.30;46.00;;;;;;10399625;28;20250;-70
2021/11/03 10:52:41;;;;;;;1.80;1.70;;;10.40;45.50;;;;;;10396988;28;20233;-69
2021/11/03 10:57:47;;;;;;;1.80;1.70;;;10.40;45.90;;;;;;10396131;28;20233;-69
2021/11/03 11:02:56;;;;;;;1.60;1.50;;;10.50;45.40;;;;;;10393237;28;20227;-69
2021/11/03 11:08:05;;;;;;;1.70;1.60;;;10.60;45.60;;;;;;10400238;28;20225;-70
2021/11/03 11:13:19;;;;;;;2.23;2.13;;;10.60;45.60;;;;;;10393038;28;20230;-70
2021/11/03 11:18:40;;;;;;;2.17;2.00;;;10.70;46.40;;;;;;10411005;28;20237;-69
2021/11/03 11:23:51;;;;;;;3.03;2.47;;;10.90;45.70;;;;;;10388815;28;20233;-69
2021/11/03 11:29:05;;;;;;;3.23;2.13;;;10.90;45.60;;;;;;10393426;28;20760;-69
2021/11/03 11:34:23;;;;;;;2.23;2.00;;;11.00;45.40;;;;;;10388843;28;20690;-69
2021/11/03 11:39:39;;;;;;;2.47;2.27;;;11.10;45.50;;;;;;10385647;28;20240;-69
2021/11/03 11:44:51;;;;;;;4.07;2.50;;;11.10;45.40;;;;;;10387494;28;20225;-69
2021/11/03 11:49:54;;;;;;;3.17;2.70;;;11.20;45.30;;;;;;10391777;28;20770;-69
2021/11/03 11:55:22;;;;;;;2.60;2.40;;;11.20;45.10;;;;;;10394960;28;20236;-69
2021/11/03 12:00:26;;;;;;;2.70;2.50;;;11.20;45.20;;;;;;10392306;28;20990;-69
2021/11/03 12:05:45;;;;;;;2.77;2.57;;;11.30;45.00;;;;;;10392714;28;20255;-69
2021/11/03 12:11:16;;;;;;;2.70;2.50;;;11.40;45.00;;;;;;10393367;28;20222;-69
2021/11/03 12:16:31;;;;;;;3.03;2.60;;;11.40;45.00;;;;;;10392993;28;20225;-69
2021/11/03 12:21:55;;;;;;;2.80;2.60;;;11.40;44.90;;;;;;10385658;28;20712;-69
2021/11/03 12:27:28;;;;;;;3.47;3.20;;;11.40;45.00;;;;;;10391792;28;20221;-69
2021/11/03 12:32:40;;;;;;;3.40;3.20;;;11.50;45.00;;;;;;10387864;28;20228;-69
2021/11/03 12:37:44;;;;;;;3.17;2.97;;;11.50;44.80;;;;;;10394574;28;20241;-69
2021/11/03 12:42:55;;;;;;;3.20;2.90;;;11.60;44.80;;;;;;10388464;28;20225;-69
2021/11/03 12:48:02;;;;;;;3.53;3.23;;;11.60;44.90;;;;;;10373667;28;20229;-69
2021/11/03 12:53:14;;;;;;;3.30;3.00;;;11.60;44.90;;;;;;10377109;28;20832;-69
2021/11/03 12:58:38;;;;;;;2.97;2.77;;;11.70;44.90;;;;;;10383106;28;20221;-69
2021/11/03 13:03:50;;;;;;;3.10;2.90;;;11.70;44.80;;;;;;10377296;28;20221;-69
2021/11/03 13:08:54;;;;;;;3.40;3.10;;;11.80;45.00;;;;;;10384414;28;20230;-69
2021/11/03 13:14:00;;;;;;;3.70;3.30;;;11.80;44.80;;;;;;10379381;28;21018;-69
2021/11/03 13:19:20;;;;;;;4.10;3.30;;;11.90;44.90;;;;;;10375142;28;20217;-69
2021/11/03 13:24:28;;;;;;;3.83;3.40;;;11.90;44.90;;;;;;10378108;28;20229;-69
2021/11/03 13:29:35;;;;;;;3.70;3.40;;;12.00;44.80;;;;;;10377729;28;20324;-69
2021/11/03 13:34:46;;;;;;;3.50;3.20;;;12.00;44.90;;;;;;10374642;28;20244;-72
2021/11/03 13:40:01;;;;;;;3.37;3.07;;;12.00;44.70;;;;;;10377592;28;20232;-72
2021/11/03 13:45:18;;;;;;;3.90;3.50;;;12.10;44.90;;;;;;10377465;28;20228;-72
2021/11/03 13:50:27;;;;;;;3.87;3.57;;;12.10;44.90;;;;;;10385035;28;20229;-72
2021/11/03 13:55:42;;;;;;;4.43;4.03;;;12.10;44.80;;;;;;10382048;28;20232;-72
2021/11/03 14:00:57;;;;;;;3.80;3.50;;;12.10;44.70;;;;;;10386584;28;20881;-72
2021/11/03 14:06:13;;;;;;;3.90;3.50;;;12.10;44.70;;;;;;10381071;28;20264;-72
2021/11/03 14:11:18;;;;;;;3.83;3.53;;;12.10;44.70;;;;;;10368406;28;20232;-72
2021/11/03 14:16:25;;;;;;;4.07;3.70;;;12.10;44.60;;;;;;10395865;28;20288;-72
2021/11/03 14:21:30;;;;;;;4.00;3.23;;;12.10;44.70;;;;;;10397647;28;20225;-72
2021/11/03 14:26:33;;;;;;;4.40;4.00;;;12.10;44.60;;;;;;10395137;28;20221;-72
2021/11/03 14:31:45;;;;;;;3.90;3.50;;;12.10;44.50;;;;;;10401643;28;20662;-72
2021/11/03 14:36:50;;;;;;;6.07;3.43;;;12.10;44.70;;;;;;10398359;28;20233;-72
2021/11/03 14:41:54;;;;;;;3.97;3.57;;;12.00;44.80;;;;;;10396623;28;20229;-69
2021/11/03 14:47:00;;;;;;;4.13;3.73;;;12.00;44.80;;;;;;10386975;28;20230;-69
2021/11/03 14:52:07;;;;;;;4.87;4.43;;;12.00;45.20;;;;;;10390504;28;20268;-69
2021/11/03 14:57:11;;;;;;;5.17;4.67;;;11.90;45.10;;;;;;10395974;28;20229;-69
2021/11/03 15:02:21;;;;;;;6.33;5.30;;;11.90;44.90;;;;;;10403101;28;20276;-69
2021/11/03 15:07:26;;;;;;;5.93;5.17;;;11.90;45.10;;;;;;10393171;28;20317;-69
2021/11/03 15:12:34;;;;;;;5.80;5.30;;;11.80;45.00;;;;;;10393430;28;20229;-69
2021/11/03 15:17:41;;;;;;;6.23;5.63;;;11.80;45.50;;;;;;10391200;28;20598;-69
2021/11/03 15:22:46;;;;;;;8.97;6.17;;;11.70;44.80;;;;;;10392990;28;20601;-69
2021/11/03 15:27:49;;;;;;;6.53;5.93;;;11.70;45.00;;;;;;10390820;28;20710;-69
2021/11/03 15:32:55;;;;;;;7.50;6.70;;;11.70;45.00;;;;;;10393361;28;20249;-69
2021/11/03 15:37:59;;;;;;;8.63;7.33;;;11.60;45.10;;;;;;10394283;28;20720;-69
2021/11/03 15:43:06;;;;;;;7.20;6.50;;;11.70;45.20;;;;;;10402835;28;20228;-69
2021/11/03 15:48:15;;;;;;;7.33;6.63;;;11.70;45.30;;;;;;10386675;28;20613;-69
2021/11/03 15:53:22;;;;;;;7.47;6.73;;;11.60;45.10;;;;;;10391964;28;20707;-69
2021/11/03 15:58:26;;;;;;;9.00;8.10;;;11.60;45.00;;;;;;10382258;28;20725;-69
2021/11/03 16:03:32;;;;;;;7.97;7.20;;;11.60;44.90;;;;;;10385538;28;20258;-69
2021/11/03 16:08:57;;;;;;;7.33;6.73;;;11.70;45.00;;;;;;10386453;28;20221;-69
2021/11/03 16:14:20;;;;;;;7.63;6.93;;;11.60;44.80;;;;;;10393848;28;20308;-69
2021/11/03 16:19:24;;;;;;;8.93;8.13;;;11.60;44.90;;;;;;10391371;28;20580;-69
2021/11/03 16:24:33;;;;;;;9.60;8.60;;;11.50;44.90;;;;;;10394319;28;20232;-69
2021/11/03 16:29:36;;;;;;;8.87;8.10;;;11.50;45.00;;;;;;10394331;28;20222;-69
2021/11/03 16:34:40;;;;;;;8.10;7.40;;;11.50;44.80;;;;;;10394020;28;20229;-69
2021/11/03 16:39:45;;;;;;;9.23;8.43;;;11.40;44.80;;;;;;10396929;28;20231;-69
2021/11/03 16:44:50;;;;;;;8.90;7.27;;;11.40;44.80;;;;;;10401106;28;20287;-69
2021/11/03 16:49:55;;;;;;;9.17;8.37;;;11.40;44.90;;;;;;10399098;28;20228;-69
2021/11/03 16:54:59;;;;;;;11.03;10.03;;;11.40;45.00;;;;;;10395358;28;20228;-72
2021/11/03 17:00:05;;;;;;;8.03;7.33;;;11.40;45.10;;;;;;10392788;28;20237;-72
2021/11/03 17:05:08;;;;;;;8.10;7.30;;;11.40;44.90;;;;;;10400882;28;20449;-73
2021/11/03 17:10:14;;;;;;;7.60;7.00;;;11.40;45.00;;;;;;10396468;28;20232;-73
2021/11/03 17:15:20;;;;;;;8.27;7.57;;;11.40;45.20;;;;;;10400078;28;20229;-73
2021/11/03 17:20:24;;;;;;;7.97;7.27;;;11.40;45.00;;;;;;10398406;28;20604;-73
2021/11/03 17:25:29;;;;;;;7.73;6.93;;;11.40;44.90;;;;;;10396287;28;20229;-73
2021/11/03 17:30:36;;;;;;;7.03;6.43;;;11.30;45.00;;;;;;10400982;28;20713;-73
2021/11/03 17:35:42;;;;;;;7.63;7.03;;;11.10;44.80;;;;;;10391179;28;20308;-73
2021/11/03 17:40:50;;;;;;;6.43;5.93;;;11.20;45.00;;;;;;10400977;28;20221;-73
2021/11/03 17:45:56;;;;;;;6.50;6.00;;;11.20;45.00;;;;;;10404006;28;20222;-73
2021/11/03 17:51:00;;;;;;;6.63;6.13;;;11.20;44.90;;;;;;10395781;28;20253;-73
2021/11/03 17:56:20;;;;;;;6.60;6.10;;;11.10;44.80;;;;;;10387877;28;20228;-73
2021/11/03 18:01:27;;;;;;;7.00;6.40;;;11.00;45.30;;;;;;10395749;28;20236;-73
2021/11/03 18:06:31;;;;;;;7.40;6.80;;;10.90;45.30;;;;;;10395838;28;20222;-73
2021/11/03 18:11:39;;;;;;;8.77;8.07;;;10.90;45.20;;;;;;10396268;28;20226;-73
2021/11/03 18:16:42;;;;;;;8.20;7.60;;;10.80;45.60;;;;;;10400531;28;20229;-73
2021/11/03 18:21:46;;;;;;;6.03;5.53;;;10.80;45.50;;;;;;10395797;28;20230;-73
2021/11/03 18:26:55;;;;;;;28.87;26.33;;;10.80;45.50;;;;;;10402911;28;20233;-73
2021/11/03 18:31:59;;;;;;;15.07;13.83;;;10.90;45.70;;;;;;10384963;28;20217;-73
2021/11/03 18:37:04;;;;;;;10.37;9.33;;;10.90;45.50;;;;;;10390962;28;20256;-73
2021/11/03 18:42:18;;;;;;;9.67;8.87;;;10.90;45.50;;;;;;10395245;28;20226;-73
2021/11/03 18:47:22;;;;;;;10.43;9.43;;;10.90;45.80;;;;;;10393536;28;22449;-73
2021/11/03 18:52:29;;;;;;;11.83;10.63;;;11.00;45.40;;;;;;10395491;28;20257;-73
2021/11/03 18:57:38;;;;;;;9.53;8.73;;;11.00;45.60;;;;;;10395633;28;20229;-73
2021/11/03 19:02:41;;;;;;;8.00;7.30;;;11.00;45.70;;;;;;10396378;28;20241;-73
2021/11/03 19:07:46;;;;;;;7.47;6.80;;;11.00;45.30;;;;;;10401943;28;20656;-73
2021/11/03 19:12:52;;;;;;;6.90;5.90;;;11.00;45.50;;;;;;10392571;28;20228;-73
2021/11/03 19:17:55;;;;;;;6.53;5.93;;;11.10;45.60;;;;;;10404947;28;20240;-73
2021/11/03 19:23:02;;;;;;;6.23;5.57;;;11.00;45.30;;;;;;10390115;28;20225;-73
2021/11/03 19:28:08;;;;;;;5.57;5.17;;;11.10;45.50;;;;;;10390817;28;20619;-69
2021/11/03 19:33:14;;;;;;;5.37;4.87;;;11.10;45.50;;;;;;10390959;28;20222;-69
2021/11/03 19:38:20;;;;;;;6.07;5.57;;;11.10;45.50;;;;;;10393568;28;20228;-69
2021/11/03 19:43:26;;;;;;;6.00;5.50;;;11.10;45.60;;;;;;10380209;28;20599;-69
2021/11/03 19:48:30;;;;;;;5.53;5.03;;;11.00;45.80;;;;;;10363243;28;20235;-69
2021/11/03 19:53:38;;;;;;;5.80;5.30;;;11.00;45.70;;;;;;10346933;28;20237;-69
2021/11/03 19:58:43;;;;;;;5.47;5.03;;;11.10;46.10;;;;;;10361494;28;20332;-69
2021/11/03 20:03:47;;;;;;;5.67;5.17;;;11.10;46.00;;;;;;10360338;28;20225;-69
2021/11/03 20:08:50;;;;;;;6.10;5.50;;;11.10;45.80;;;;;;10353184;28;20264;-69
2021/11/03 20:13:58;;;;;;;6.47;5.97;;;11.10;45.90;;;;;;10361892;28;20867;-69
2021/11/03 20:19:03;;;;;;;6.23;5.73;;;11.00;46.20;;;;;;10339309;28;20226;-69
2021/11/03 20:24:07;;;;;;;6.40;5.90;;;11.00;46.20;;;;;;10342250;28;20228;-70
2021/11/03 20:29:12;;;;;;;6.60;6.00;;;11.00;46.20;;;;;;10344273;28;20248;-69
2021/11/03 20:34:23;;;;;;;5.60;5.20;;;11.00;46.40;;;;;;10328125;28;20226;-69
2021/11/03 20:39:28;;;;;;;6.70;6.20;;;11.00;46.70;;;;;;10352246;28;20789;-70
2021/11/03 20:44:31;;;;;;;6.87;6.27;;;11.00;46.20;;;;;;10348057;28;20230;-69
2021/11/03 20:49:36;;;;;;;6.83;6.23;;;11.00;46.30;;;;;;10346021;28;20735;-70
2021/11/03 20:54:39;;;;;;;7.07;6.47;;;10.80;46.50;;;;;;10344281;28;20335;-69
2021/11/03 20:59:43;;;;;;;7.40;6.80;;;11.00;46.40;;;;;;10343817;28;20238;-70
2021/11/03 21:04:47;;;;;;;7.53;6.83;;;11.00;46.40;;;;;;10346210;28;20218;-69
2021/11/03 21:09:50;;;;;;;7.23;6.63;;;11.00;46.60;;;;;;10345203;28;20230;-69
2021/11/03 21:14:54;;;;;;;7.30;6.40;;;11.10;46.30;;;;;;10351155;28;20242;-69
2021/11/03 21:19:58;;;;;;;8.47;7.70;;;11.10;46.30;;;;;;10353350;28;20233;-69
2021/11/03 21:25:02;;;;;;;8.57;7.23;;;11.20;46.50;;;;;;10340290;28;20229;-70
2021/11/03 21:30:07;;;;;;;7.63;6.93;;;11.20;46.30;;;;;;10340518;28;20227;-70
2021/11/03 21:35:13;;;;;;;7.47;6.87;;;11.20;46.40;;;;;;10340863;28;20218;-69
2021/11/03 21:40:16;;;;;;;7.77;7.03;;;11.20;46.50;;;;;;10339633;28;20641;-69
2021/11/03 21:45:21;;;;;;;8.30;7.60;;;11.10;46.20;;;;;;10354348;28;20227;-69
2021/11/03 21:50:26;;;;;;;8.40;7.70;;;11.10;46.50;;;;;;10341199;28;20244;-69
2021/11/03 21:55:30;;;;;;;8.17;7.47;;;11.10;46.70;;;;;;10339319;28;20322;-69
2021/11/03 22:00:33;;;;;;;8.60;7.80;;;11.10;46.50;;;;;;10344304;28;20431;-69
2021/11/03 22:05:38;;;;;;;8.67;7.97;;;11.10;46.70;;;;;;10345062;28;20315;-69
2021/11/03 22:10:41;;;;;;;7.13;6.53;;;11.10;46.80;;;;;;10343402;28;20752;-69
2021/11/03 22:15:44;;;;;;;6.90;6.40;;;11.10;46.70;;;;;;10349163;28;20233;-69
2021/11/03 22:20:49;;;;;;;7.40;6.80;;;11.20;46.80;;;;;;10333229;28;20230;-73
2021/11/03 22:25:52;;;;;;;7.70;7.00;;;11.20;46.90;;;;;;10333534;28;20221;-71
2021/11/03 22:30:56;;;;;;;7.37;6.77;;;11.20;46.80;;;;;;10336047;28;20821;-71
2021/11/03 22:36:00;;;;;;;7.40;6.80;;;11.20;46.80;;;;;;10334941;28;20244;-71
2021/11/03 22:41:04;;;;;;;7.80;7.10;;;11.30;47.00;;;;;;10339684;28;20219;-71
2021/11/03 22:46:07;;;;;;;8.17;7.43;;;11.20;46.80;;;;;;10338425;28;20227;-71
2021/11/03 22:51:12;;;;;;;7.70;7.10;;;11.20;46.70;;;;;;10344640;28;20226;-71
2021/11/03 22:56:16;;;;;;;8.33;7.73;;;11.20;46.90;;;;;;10337908;28;20233;-71
2021/11/03 23:01:19;;;;;;;8.33;7.73;;;11.20;46.90;;;;;;10340957;28;20256;-71
2021/11/03 23:06:24;;;;;;;8.37;7.67;;;11.30;47.60;;;;;;10336054;28;20950;-71
2021/11/03 23:11:27;;;;;;;7.93;7.33;;;11.30;47.00;;;;;;10343012;28;20234;-71
2021/11/03 23:16:30;;;;;;;7.97;7.37;;;11.30;46.80;;;;;;10331959;28;20231;-71
2021/11/03 23:21:35;;;;;;;8.50;7.80;;;11.30;46.70;;;;;;10333330;28;20234;-71
2021/11/03 23:26:38;;;;;;;8.23;7.53;;;11.30;47.00;;;;;;10335571;28;20246;-71
2021/11/03 23:31:41;;;;;;;8.97;8.27;;;11.30;46.70;;;;;;10337746;28;20230;-71
2021/11/03 23:36:46;;;;;;;9.37;8.57;;;11.30;46.60;;;;;;10339941;28;20234;-71
2021/11/03 23:41:49;;;;;;;9.17;8.47;;;11.30;46.70;;;;;;10333423;28;20362;-71
2021/11/03 23:46:55;;;;;;;10.10;9.30;;;11.30;46.60;;;;;;10326077;28;20228;-71
2021/11/03 23:51:59;;;;;;;9.77;8.93;;;11.30;46.70;;;;;;10348097;28;20230;-71
2021/11/03 23:57:03;;;;;;;9.17;8.47;;;11.30;47.00;;;;;;10362683;28;20230;-71
